Time;durP1;ratioP1;P1;durP2;ratioP2;P2;SDS_P1;SDS_P2;PMS_P1;PMS_P2;Temp;Humidity;BMP_temperature;BMP_pressure;BME280_temperature;BME280_humidity;BME280_pressure;Samples;Min_cycle;Max_cycle;Signal;HPM_P1;HPM_P2
2021/12/15 00:01:55;;;;;;;81.40;39.77;;;;;;;-145.18;100.00;47473.06;5086708;28;20048;-69
2021/12/15 00:04:21;;;;;;;81.57;38.83;;;;;;;-145.18;100.00;47453.53;5086781;28;20063;-70
2021/12/15 00:06:46;;;;;;;84.33;43.30;;;;;;;-145.18;100.00;47461.34;5086394;28;20862;-69
2021/12/15 00:09:13;;;;;;;80.30;40.13;;;;;;;-145.18;100.00;47457.44;5086883;28;20040;-69
2021/12/15 00:11:39;;;;;;;79.43;39.97;;;;;;;-145.18;100.00;47459.41;5086746;28;20044;-69
2021/12/15 00:14:08;;;;;;;78.33;39.13;;;;;;;-145.18;100.00;47457.44;5085205;28;20276;-70
2021/12/15 00:16:34;;;;;;;88.43;42.47;;;;;;;-145.18;100.00;47455.47;5086746;28;20059;-70
2021/12/15 00:18:59;;;;;;;83.67;40.00;;;;;;;-145.18;100.00;47449.63;5087272;28;20036;-70
2021/12/15 00:21:26;;;;;;;88.13;42.40;;;;;;;-145.18;100.00;47469.16;5086427;28;20059;-70
2021/12/15 00:23:51;;;;;;;83.90;40.13;;;;;;;-145.18;100.00;47463.31;5086482;28;20054;-70
2021/12/15 00:26:17;;;;;;;92.80;40.97;;;;;;;-145.18;100.00;47465.25;5087041;28;20044;-70
2021/12/15 00:28:44;;;;;;;76.93;36.67;;;;;;;-145.18;100.00;47478.94;5086019;28;20040;-69
2021/12/15 00:31:10;;;;;;;86.10;40.97;;;;;;;-145.18;100.00;47453.53;5089708;28;20104;-70
2021/12/15 00:33:38;;;;;;;80.90;39.70;;;;;;;-145.18;100.00;47465.25;5090422;28;20280;-70
2021/12/15 00:36:04;;;;;;;76.13;39.27;;;;;;;-145.18;100.00;47467.22;5091193;28;20773;-69
2021/12/15 00:38:30;;;;;;;89.37;40.93;;;;;;;-145.18;100.00;47463.31;5090408;28;20265;-70
2021/12/15 00:40:56;;;;;;;88.87;40.87;;;;;;;-145.18;100.00;47451.56;5090214;28;20284;-70
2021/12/15 00:43:21;;;;;;;88.23;41.37;;;;;;;-145.18;100.00;47453.53;5090521;28;20272;-70
2021/12/15 00:45:48;;;;;;;89.67;40.43;;;;;;;-145.18;100.00;47461.34;5089795;28;20052;-69
2021/12/15 00:48:14;;;;;;;91.40;42.47;;;;;;;-145.18;100.00;47471.13;5090484;28;20048;-70
2021/12/15 00:50:39;;;;;;;87.80;42.77;;;;;;;-145.18;100.00;47447.66;5089666;28;20803;-70
2021/12/15 00:53:07;;;;;;;92.87;42.60;;;;;;;-145.18;100.00;47453.53;5091083;28;20272;-69
2021/12/15 00:55:33;;;;;;;94.27;41.97;;;;;;;-145.18;100.00;47459.41;5089873;28;20048;-70
2021/12/15 00:58:00;;;;;;;88.60;41.47;;;;;;;-145.18;100.00;47443.75;5090362;28;20349;-69
2021/12/15 01:00:33;;;;;;;82.80;39.33;;;;;;;-145.18;100.00;47465.25;5089998;28;20307;-70
2021/12/15 01:02:59;;;;;;;89.30;42.57;;;;;;;-145.18;100.00;47455.47;5090192;28;20268;-70
2021/12/15 01:05:33;;;;;;;94.77;43.33;;;;;;;-145.18;100.00;47445.72;5088598;28;20131;-70
2021/12/15 01:08:00;;;;;;;90.03;39.40;;;;;;;-145.18;100.00;47461.34;5089924;28;20040;-70
2021/12/15 01:10:41;;;;;;;87.10;41.60;;;;;;;-145.18;100.00;47459.41;5089692;28;20753;-69
2021/12/15 01:21:05;;;;;;;84.07;40.17;;;;;;;-145.18;100.00;47443.75;5089880;28;20288;-69
2021/12/15 01:23:33;;;;;;;86.87;41.00;;;;;;;-145.18;100.00;47451.56;5089546;28;20269;-69
2021/12/15 01:26:12;;;;;;;89.50;40.10;;;;;;;-145.18;100.00;47453.53;5089331;28;20757;-69
2021/12/15 01:28:38;;;;;;;84.73;40.20;;;;;;;-145.18;100.00;47449.63;5089859;28;20275;-70
2021/12/15 01:31:05;;;;;;;83.50;40.50;;;;;;;-145.18;100.00;47445.72;5089073;28;20749;-70
2021/12/15 01:33:32;;;;;;;91.03;42.57;;;;;;;-145.18;100.00;47445.72;5089129;28;20273;-69
2021/12/15 01:35:58;;;;;;;87.80;42.40;;;;;;;-145.18;100.00;47476.97;5089377;28;20333;-70
2021/12/15 01:38:28;;;;;;;99.00;43.67;;;;;;;-145.18;100.00;47453.53;5089796;28;20280;-70
2021/12/15 01:40:54;;;;;;;92.63;42.37;;;;;;;-145.18;100.00;47447.66;5088775;28;20164;-70
2021/12/15 01:43:37;;;;;;;83.03;35.63;;;;;;;-145.18;100.00;47453.53;5089286;28;20269;-70
2021/12/15 01:49:00;;;;;;;94.40;42.63;;;;;;;-145.18;100.00;47467.22;5088966;28;20272;-70
2021/12/15 01:51:26;;;;;;;92.10;42.30;;;;;;;-145.18;100.00;47451.56;5089147;28;20273;-70
2021/12/15 01:53:52;;;;;;;94.13;42.80;;;;;;;-145.18;100.00;47457.44;5088784;28;20280;-70
2021/12/15 01:56:17;;;;;;;94.30;44.50;;;;;;;-145.18;100.00;47455.47;5089055;28;20439;-70
2021/12/15 01:58:43;;;;;;;99.00;45.17;;;;;;;-145.18;100.00;47437.91;5088839;28;20044;-70
2021/12/15 02:01:09;;;;;;;101.83;44.97;;;;;;;-145.18;100.00;47435.94;5088279;28;20036;-70
2021/12/15 02:03:36;;;;;;;102.43;45.43;;;;;;;-145.18;100.00;47457.44;5089024;28;20040;-70
2021/12/15 02:06:02;;;;;;;100.57;46.93;;;;;;;-145.18;100.00;47476.97;5089176;28;20749;-70
2021/12/15 02:08:28;;;;;;;95.93;44.27;;;;;;;-145.18;100.00;47441.81;5088827;28;20834;-69
2021/12/15 02:10:54;;;;;;;96.93;43.33;;;;;;;-145.18;100.00;47453.53;5088330;28;20264;-70
2021/12/15 02:13:20;;;;;;;94.33;44.00;;;;;;;-145.18;100.00;47451.56;5088995;28;20044;-70
2021/12/15 02:15:49;;;;;;;99.60;44.97;;;;;;;-145.18;100.00;47457.44;5088189;28;20063;-70
2021/12/15 02:18:18;;;;;;;93.90;42.70;;;;;;;-145.18;100.00;47447.66;5088932;28;20111;-70
2021/12/15 02:20:50;;;;;;;100.30;42.50;;;;;;;-145.18;100.00;47445.72;5087887;28;20288;-70
2021/12/15 02:23:19;;;;;;;96.20;42.83;;;;;;;-145.18;100.00;47445.72;5088567;28;20280;-70
2021/12/15 02:25:45;;;;;;;98.23;41.93;;;;;;;-145.18;100.00;47455.47;5088126;28;20295;-70
2021/12/15 02:28:11;;;;;;;93.87;44.03;;;;;;;-145.18;100.00;47449.63;5088396;28;20276;-70
2021/12/15 02:30:53;;;;;;;96.47;44.60;;;;;;;-145.18;100.00;47437.91;5088770;28;20539;-70
2021/12/15 02:33:50;;;;;;;94.13;43.13;;;;;;;-145.18;100.00;47443.75;5088321;28;20036;-70
2021/12/15 02:39:05;;;;;;;92.83;41.90;;;;;;;-145.18;100.00;47451.56;5068420;28;19939;-70
2021/12/15 02:41:32;;;;;;;94.17;42.90;;;;;;;-145.18;100.00;47439.84;5067891;28;20321;-69
2021/12/15 02:44:03;;;;;;;102.13;43.57;;;;;;;-145.18;100.00;47445.72;5067691;28;20281;-70
2021/12/15 02:46:30;;;;;;;91.37;43.30;;;;;;;-145.18;100.00;47457.44;5067736;28;20274;-69
2021/12/15 02:48:56;;;;;;;95.27;43.63;;;;;;;-145.18;100.00;47459.41;5067920;28;20269;-70
2021/12/15 02:51:22;;;;;;;93.30;43.20;;;;;;;-145.18;100.00;47441.81;5067345;28;20653;-70
2021/12/15 02:53:49;;;;;;;91.10;41.87;;;;;;;-145.18;100.00;47461.34;5066963;28;20051;-70
2021/12/15 02:56:15;;;;;;;91.20;41.67;;;;;;;-145.18;100.00;47445.72;5067438;28;20273;-70
2021/12/15 02:58:50;;;;;;;87.37;42.83;;;;;;;-145.18;100.00;47467.22;5068151;28;20408;-69
2021/12/15 03:01:26;;;;;;;94.85;41.40;;;;;;;-145.18;100.00;47439.84;5067412;28;20291;-69
2021/12/15 03:06:40;;;;;;;90.20;41.20;;;;;;;-145.18;100.00;47451.56;5067598;28;20582;-70
2021/12/15 03:17:03;;;;;;;83.10;39.50;;;;;;;-145.18;100.00;47441.81;5067665;28;20273;-69
2021/12/15 03:19:28;;;;;;;91.87;42.27;;;;;;;-145.18;100.00;47451.56;5066469;28;20052;-70
2021/12/15 03:21:54;;;;;;;87.43;40.87;;;;;;;-145.18;100.00;47451.56;5067338;28;20041;-70
2021/12/15 03:24:23;;;;;;;85.97;41.57;;;;;;;-145.18;100.00;47449.63;5067193;28;20036;-70
2021/12/15 03:26:58;;;;;;;89.43;42.80;;;;;;;-145.18;100.00;47463.31;5067253;28;20473;-70
2021/12/15 03:35:19;;;;;;;93.40;41.83;;;;;;;-145.18;100.00;47457.44;5067370;28;20292;-70
2021/12/15 03:37:53;;;;;;;89.77;41.47;;;;;;;-145.18;100.00;47443.75;5066888;28;20069;-70
2021/12/15 03:40:22;;;;;;;89.80;42.07;;;;;;;-145.18;100.00;47445.72;5067297;28;20040;-70
2021/12/15 03:42:56;;;;;;;86.77;40.93;;;;;;;-145.18;100.00;47453.53;5066717;28;20365;-70
2021/12/15 03:45:35;;;;;;;84.50;40.87;;;;;;;-145.18;100.00;47449.63;5066904;28;20281;-70
2021/12/15 03:48:07;;;;;;;85.53;39.33;;;;;;;-145.18;100.00;47441.81;5067182;28;20281;-70
2021/12/15 03:50:33;;;;;;;93.33;42.63;;;;;;;-145.18;100.00;47465.25;5066923;28;20278;-71
2021/12/15 03:52:59;;;;;;;87.00;42.43;;;;;;;-145.18;100.00;47445.72;5066569;28;20283;-70
2021/12/15 03:55:28;;;;;;;95.17;41.37;;;;;;;-145.18;100.00;47445.72;5066993;28;20040;-70
2021/12/15 03:57:55;;;;;;;86.37;40.67;;;;;;;-145.18;100.00;47461.34;5066407;28;20826;-70
2021/12/15 04:00:22;;;;;;;83.40;39.97;;;;;;;-145.18;100.00;47453.53;5066883;28;20286;-70
2021/12/15 04:02:48;;;;;;;83.73;39.20;;;;;;;-145.18;100.00;47449.63;5066555;28;20307;-71
2021/12/15 04:05:17;;;;;;;86.20;38.80;;;;;;;-145.18;100.00;47455.47;5070102;28;20501;-71
2021/12/15 04:07:43;;;;;;;80.27;39.20;;;;;;;-145.18;100.00;47449.63;5070311;28;20041;-71
2021/12/15 04:10:13;;;;;;;80.70;38.67;;;;;;;-145.18;100.00;47453.53;5071445;28;20281;-71
2021/12/15 04:12:39;;;;;;;84.07;39.50;;;;;;;-145.18;100.00;47426.19;5070873;28;20044;-71
2021/12/15 04:17:50;;;;;;;82.77;38.37;;;;;;;-145.18;100.00;47447.66;5070578;28;20037;-71
2021/12/15 04:20:19;;;;;;;92.03;41.13;;;;;;;-145.18;100.00;47443.75;5070665;28;20674;-71
2021/12/15 04:22:45;;;;;;;79.60;39.03;;;;;;;-145.18;100.00;47439.84;5070257;28;20691;-70
2021/12/15 04:25:15;;;;;;;84.10;40.43;;;;;;;-145.18;100.00;47439.84;5070461;28;20285;-71
2021/12/15 04:27:51;;;;;;;74.97;36.93;;;;;;;-145.18;100.00;47449.63;5070265;28;20289;-71
2021/12/15 04:30:16;;;;;;;77.77;36.90;;;;;;;-145.18;100.00;47455.47;5070570;28;20266;-71
2021/12/15 04:32:45;;;;;;;80.80;37.77;;;;;;;-145.18;100.00;47439.84;5070312;28;20331;-71
2021/12/15 04:35:13;;;;;;;83.60;37.53;;;;;;;-145.18;100.00;47441.81;5070549;28;20036;-71
2021/12/15 04:37:39;;;;;;;78.60;39.80;;;;;;;-145.18;100.00;47447.66;5069986;28;20272;-71
2021/12/15 04:40:07;;;;;;;78.97;40.03;;;;;;;-145.18;100.00;47455.47;5070162;28;20638;-71
2021/12/15 04:42:33;;;;;;;81.60;38.37;;;;;;;-145.18;100.00;47426.19;5069973;28;20285;-71
2021/12/15 04:44:59;;;;;;;84.97;39.37;;;;;;;-145.18;100.00;47443.75;5070690;28;20093;-71
2021/12/15 04:47:25;;;;;;;75.30;38.13;;;;;;;-145.18;100.00;47453.53;5070346;28;20124;-71
2021/12/15 04:49:55;;;;;;;79.67;37.93;;;;;;;-145.18;100.00;47439.84;5069839;28;20044;-70
2021/12/15 04:52:25;;;;;;;76.23;36.87;;;;;;;-145.18;100.00;47447.66;5069682;28;20262;-71
2021/12/15 04:54:51;;;;;;;82.97;39.67;;;;;;;-145.18;100.00;47453.53;5069467;28;20504;-71
2021/12/15 04:57:19;;;;;;;80.17;37.87;;;;;;;-145.18;100.00;47455.47;5070218;28;20680;-71
2021/12/15 04:59:45;;;;;;;79.40;37.03;;;;;;;-145.18;100.00;47434.00;5069643;28;20048;-70
2021/12/15 05:02:13;;;;;;;72.10;35.53;;;;;;;-145.18;100.00;47434.00;5069850;28;20357;-71
2021/12/15 05:04:38;;;;;;;80.67;38.43;;;;;;;-145.18;100.00;47447.66;5069606;28;20301;-71
2021/12/15 05:07:04;;;;;;;76.03;33.90;;;;;;;-145.18;100.00;47449.63;5070413;28;20051;-71
2021/12/15 05:09:29;;;;;;;85.30;37.17;;;;;;;-145.18;100.00;47449.63;5069585;28;20047;-71
2021/12/15 05:11:55;;;;;;;73.80;37.10;;;;;;;-145.18;100.00;47439.84;5069849;28;20052;-71
2021/12/15 05:14:23;;;;;;;80.23;37.30;;;;;;;-145.18;100.00;47437.91;5069993;28;20123;-71
2021/12/15 05:16:49;;;;;;;78.20;36.93;;;;;;;-145.18;100.00;47434.00;5068367;28;20075;-71
2021/12/15 05:19:15;;;;;;;77.90;36.80;;;;;;;-145.18;100.00;47447.66;5069699;28;20694;-71
2021/12/15 05:21:41;;;;;;;78.00;37.23;;;;;;;-145.18;100.00;47453.53;5069036;28;20040;-71
2021/12/15 05:24:23;;;;;;;79.60;37.60;;;;;;;-145.18;100.00;47463.31;5070144;28;20144;-71
2021/12/15 05:26:49;;;;;;;83.23;38.67;;;;;;;-145.18;100.00;47439.84;5069149;28;20124;-71
2021/12/15 05:29:15;;;;;;;85.80;39.77;;;;;;;-145.18;100.00;47447.66;5069558;28;20803;-71
2021/12/15 05:31:41;;;;;;;82.30;39.57;;;;;;;-145.18;100.00;47443.75;5069084;28;20063;-70
2021/12/15 05:34:06;;;;;;;78.20;36.57;;;;;;;-145.18;100.00;47437.91;5069449;28;20036;-70
2021/12/15 05:36:31;;;;;;;88.40;39.23;;;;;;;-145.18;100.00;47461.34;5068923;28;20413;-71
2021/12/15 05:38:57;;;;;;;81.93;38.23;;;;;;;-145.18;100.00;47432.03;5066288;28;20060;-71
2021/12/15 05:41:23;;;;;;;83.70;37.40;;;;;;;-145.18;100.00;47426.19;5058542;28;20087;-71
2021/12/15 05:43:49;;;;;;;81.10;37.20;;;;;;;-145.18;100.00;47439.84;5056423;28;20037;-71
2021/12/15 05:46:14;;;;;;;82.60;37.20;;;;;;;-145.18;100.00;47447.66;5056820;28;20037;-71
2021/12/15 05:48:40;;;;;;;84.97;36.60;;;;;;;-145.18;100.00;47449.63;5057762;28;20076;-71
2021/12/15 05:51:05;;;;;;;82.63;38.07;;;;;;;-145.18;100.00;47430.09;5053931;28;20033;-71
2021/12/15 05:53:30;;;;;;;81.77;36.50;;;;;;;-145.18;100.00;47449.63;5048992;28;20486;-71
2021/12/15 05:55:56;;;;;;;89.20;39.07;;;;;;;-145.18;100.00;47441.81;5047669;28;20065;-70
2021/12/15 05:58:21;;;;;;;89.07;39.17;;;;;;;-145.18;100.00;47453.53;5057617;28;20037;-70
2021/12/15 06:00:47;;;;;;;91.73;37.33;;;;;;;-145.18;100.00;47416.41;5075186;28;20040;-71
2021/12/15 06:03:14;;;;;;;87.90;39.70;;;;;;;-145.18;100.00;47441.81;5088190;28;20052;-71
2021/12/15 06:05:40;;;;;;;91.27;36.07;;;;;;;-145.18;100.00;47435.94;5082582;28;20505;-71
2021/12/15 06:08:06;;;;;;;99.83;40.63;;;;;;;-145.18;100.00;47439.84;5088937;28;20300;-70
2021/12/15 06:10:35;;;;;;;95.60;38.43;;;;;;;-145.18;100.00;47437.91;5089002;28;20047;-70
2021/12/15 06:13:03;;;;;;;88.63;38.90;;;;;;;-145.18;100.00;47459.41;5087970;28;20808;-70
2021/12/15 06:15:30;;;;;;;91.10;38.97;;;;;;;-145.18;100.00;47447.66;5088482;28;20272;-70
2021/12/15 06:18:00;;;;;;;86.97;38.07;;;;;;;-145.18;100.00;47457.44;5078738;28;20037;-71
2021/12/15 06:20:27;;;;;;;90.10;37.07;;;;;;;-145.18;100.00;47443.75;5073531;28;20720;-71
2021/12/15 06:22:54;;;;;;;91.43;38.33;;;;;;;-145.18;100.00;47445.72;5080806;28;20272;-71
2021/12/15 06:25:21;;;;;;;94.73;39.07;;;;;;;-145.18;100.00;47437.91;5069843;28;20041;-71
2021/12/15 06:27:47;;;;;;;92.33;39.77;;;;;;;-145.18;100.00;47434.00;5066344;28;20036;-71
2021/12/15 06:30:13;;;;;;;93.23;38.17;;;;;;;-145.18;100.00;47434.00;5068102;28;20102;-71
2021/12/15 06:32:39;;;;;;;89.70;37.13;;;;;;;-145.18;100.00;47457.44;5068485;28;20032;-71
2021/12/15 06:35:05;;;;;;;92.37;38.03;;;;;;;-145.18;100.00;47441.81;5067493;28;20505;-71
2021/12/15 06:37:31;;;;;;;93.13;38.23;;;;;;;-145.18;100.00;47434.00;5067720;28;20032;-71
2021/12/15 06:39:57;;;;;;;92.50;37.33;;;;;;;-145.18;100.00;47445.72;5067453;28;20501;-71
2021/12/15 06:42:22;;;;;;;90.70;35.47;;;;;;;-145.18;100.00;47441.81;5067742;28;20528;-71
2021/12/15 06:44:48;;;;;;;92.97;39.47;;;;;;;-145.18;100.00;47449.63;5068727;28;20123;-71
2021/12/15 07:00:33;;;;;;;94.87;37.57;;;;;;;-145.18;100.00;47445.72;5073314;28;20047;-71
2021/12/15 07:03:01;;;;;;;75.17;29.37;;;;;;;-145.18;100.00;47443.75;5108250;28;20564;-71
2021/12/15 07:05:27;;;;;;;97.30;37.93;;;;;;;-145.18;100.00;47447.66;5107762;28;20345;-70
2021/12/15 07:07:54;;;;;;;105.17;40.23;;;;;;;-145.18;100.00;47449.63;5107120;28;20115;-71
2021/12/15 07:10:25;;;;;;;95.20;37.97;;;;;;;-145.18;100.00;47434.00;5107382;28;20412;-71
2021/12/15 07:12:51;;;;;;;94.27;38.13;;;;;;;-145.18;100.00;47453.53;5107442;28;20272;-71
2021/12/15 07:15:18;;;;;;;90.67;37.80;;;;;;;-145.18;100.00;47445.72;5088253;28;20809;-71
2021/12/15 07:17:46;;;;;;;89.00;36.97;;;;;;;-145.18;100.00;47443.75;5087135;28;20032;-71
2021/12/15 07:20:35;;;;;;;89.57;37.43;;;;;;;-145.18;100.00;47453.53;5087139;28;20070;-71
2021/12/15 07:23:02;;;;;;;97.80;38.93;;;;;;;-145.18;100.00;47455.47;5087356;28;20036;-71
2021/12/15 07:25:28;;;;;;;97.63;39.77;;;;;;;-145.18;100.00;47457.44;5072138;28;20036;-71
2021/12/15 07:27:55;;;;;;;93.13;39.03;;;;;;;-145.18;100.00;47453.53;5077744;28;20037;-71
2021/12/15 07:30:23;;;;;;;97.30;39.60;;;;;;;-145.18;100.00;47457.44;5088176;28;20031;-71
2021/12/15 07:32:49;;;;;;;99.00;39.97;;;;;;;-145.18;100.00;47445.72;5100003;27;20035;-71
2021/12/15 07:35:16;;;;;;;101.30;37.87;;;;;;;-145.18;100.00;47453.53;5079956;28;20280;-71
2021/12/15 07:37:42;;;;;;;88.83;37.37;;;;;;;-145.18;100.00;47453.53;5071117;28;20532;-71
2021/12/15 07:40:13;;;;;;;91.17;39.47;;;;;;;-145.18;100.00;47453.53;5073577;28;20277;-71
2021/12/15 07:42:54;;;;;;;85.60;33.43;;;;;;;-145.18;100.00;47443.75;5086608;28;20069;-71
2021/12/15 07:45:22;;;;;;;97.90;39.30;;;;;;;-145.18;100.00;47447.66;5076136;28;20039;-71
2021/12/15 07:47:49;;;;;;;88.93;37.10;;;;;;;-145.18;100.00;47439.84;5078714;28;20052;-71
2021/12/15 07:50:16;;;;;;;90.07;36.47;;;;;;;-145.18;100.00;47447.66;5076693;28;20257;-71
2021/12/15 07:52:41;;;;;;;92.03;37.43;;;;;;;-145.18;100.00;47441.81;5071463;28;20279;-71
2021/12/15 07:55:07;;;;;;;92.20;36.23;;;;;;;-145.18;100.00;47445.72;5064751;28;20261;-71
2021/12/15 07:57:32;;;;;;;97.03;39.40;;;;;;;-145.18;100.00;47441.81;5065636;28;20038;-71
2021/12/15 07:59:59;;;;;;;90.97;37.87;;;;;;;-145.18;100.00;47457.44;5073546;28;20044;-72
2021/12/15 08:02:26;;;;;;;96.87;39.40;;;;;;;-145.18;100.00;47443.75;5086088;28;20330;-71
2021/12/15 08:04:52;;;;;;;90.07;39.57;;;;;;;-145.18;100.00;47457.44;5092520;28;20127;-71
2021/12/15 08:07:17;;;;;;;88.30;38.40;;;;;;;-145.18;100.00;47441.81;5069374;28;20448;-71
2021/12/15 08:09:44;;;;;;;91.53;39.57;;;;;;;-145.18;100.00;47439.84;5080178;28;20076;-71
2021/12/15 08:12:10;;;;;;;87.30;37.13;;;;;;;-145.18;100.00;47457.44;5075442;28;20038;-71
2021/12/15 08:14:35;;;;;;;90.03;36.20;;;;;;;-145.18;100.00;47445.72;5072525;28;20273;-71
2021/12/15 08:17:01;;;;;;;95.37;38.73;;;;;;;-145.18;100.00;47435.94;5066298;28;20493;-71
2021/12/15 08:19:26;;;;;;;87.03;36.03;;;;;;;-145.18;100.00;47449.63;5084774;28;20104;-71
2021/12/15 08:21:52;;;;;;;83.63;32.33;;;;;;;-145.18;100.00;47457.44;5078435;28;20079;-71
2021/12/15 08:24:18;;;;;;;85.80;36.93;;;;;;;-145.18;100.00;47439.84;5065838;28;20520;-71
2021/12/15 08:26:44;;;;;;;89.03;39.00;;;;;;;-145.18;100.00;47453.53;5065489;28;20048;-71
2021/12/15 08:29:10;;;;;;;86.90;38.73;;;;;;;-145.18;100.00;47443.75;5067677;28;20043;-71
2021/12/15 08:31:35;;;;;;;88.77;36.87;;;;;;;-145.18;100.00;47455.47;5081618;28;20382;-71
2021/12/15 08:34:01;;;;;;;77.33;34.90;;;;;;;-145.18;100.00;47428.13;5075116;28;20040;-71
2021/12/15 08:36:26;;;;;;;76.13;31.70;;;;;;;-145.18;100.00;47443.75;5068245;28;20509;-71
2021/12/15 08:38:52;;;;;;;83.33;35.47;;;;;;;-145.18;100.00;47441.81;5082703;28;20071;-70
2021/12/15 08:41:24;;;;;;;83.93;36.70;;;;;;;-145.18;100.00;47432.03;5066634;28;20033;-71
2021/12/15 08:43:49;;;;;;;79.73;34.63;;;;;;;-145.18;100.00;47434.00;5069652;28;20157;-71
2021/12/15 08:46:23;;;;;;;79.20;36.20;;;;;;;-145.18;100.00;47441.81;5082263;28;20044;-71
2021/12/15 08:48:49;;;;;;;80.57;35.90;;;;;;;-145.18;100.00;47432.03;5070381;28;20148;-71
2021/12/15 08:51:17;;;;;;;83.63;36.33;;;;;;;-145.18;100.00;47434.00;5086231;28;20043;-71
2021/12/15 08:53:44;;;;;;;78.63;37.23;;;;;;;-145.18;100.00;47443.75;5089009;28;20119;-71
2021/12/15 08:56:10;;;;;;;70.27;33.20;;;;;;;-145.18;100.00;47426.19;5080416;28;20266;-71
2021/12/15 08:58:37;;;;;;;88.90;35.30;;;;;;;-145.18;100.00;47430.09;5067743;28;20074;-71
2021/12/15 09:01:04;;;;;;;80.23;36.13;;;;;;;-145.18;100.00;47449.63;5088718;28;20045;-71
2021/12/15 09:03:31;;;;;;;82.33;37.40;;;;;;;-145.18;100.00;47445.72;5069433;28;20049;-71
2021/12/15 09:05:59;;;;;;;76.27;37.70;;;;;;;-145.18;100.00;47426.19;5069295;28;20040;-71
2021/12/15 09:08:26;;;;;;;77.40;35.33;;;;;;;-145.18;100.00;47434.00;5077848;28;20040;-71
2021/12/15 09:10:54;;;;;;;66.93;30.83;;;;;;;-145.18;100.00;47434.00;5088257;28;20210;-71
2021/12/15 09:13:20;;;;;;;74.70;34.93;;;;;;;-145.18;100.00;47426.19;5086005;28;20284;-72
2021/12/15 09:15:46;;;;;;;75.07;35.20;;;;;;;-145.18;100.00;47437.91;5069537;28;20123;-71
2021/12/15 09:18:13;;;;;;;70.07;33.13;;;;;;;-145.18;100.00;47426.19;5068032;28;20408;-71
2021/12/15 09:20:40;;;;;;;74.20;35.00;;;;;;;-145.18;100.00;47439.84;5082724;28;20058;-70
2021/12/15 09:23:08;;;;;;;78.47;36.53;;;;;;;-145.18;100.00;47426.19;5071143;28;20044;-71
2021/12/15 09:25:34;;;;;;;73.40;35.87;;;;;;;-145.18;100.00;47435.94;5068319;28;20037;-71
2021/12/15 09:28:00;;;;;;;75.53;35.10;;;;;;;-145.18;100.00;47430.09;5067579;28;20040;-71
2021/12/15 09:30:28;;;;;;;73.37;35.13;;;;;;;-145.18;100.00;47428.13;5068680;28;20043;-72
2021/12/15 09:32:55;;;;;;;72.30;33.70;;;;;;;-145.18;100.00;47430.09;5068563;28;20048;-72
2021/12/15 09:35:22;;;;;;;75.43;33.07;;;;;;;-145.18;100.00;47437.91;5088932;28;20042;-71
2021/12/15 09:37:48;;;;;;;73.00;35.50;;;;;;;-145.18;100.00;47426.19;5088201;28;20060;-71
2021/12/15 09:40:17;;;;;;;69.07;34.93;;;;;;;-145.18;100.00;47437.91;5073194;28;20464;-71
2021/12/15 09:42:42;;;;;;;70.60;34.40;;;;;;;-145.18;100.00;47418.38;5082216;28;20041;-71
2021/12/15 09:45:24;;;;;;;68.93;34.20;;;;;;;-145.18;100.00;47430.09;5080906;28;20105;-71
2021/12/15 10:19:57;;;;;;;60.80;29.97;;;;;;;-145.18;100.00;47414.47;5070028;28;20044;-71
2021/12/15 10:22:47;;;;;;;63.80;33.43;;;;;;;-145.18;100.00;47418.38;5067665;28;20148;-72
2021/12/15 10:25:26;;;;;;;70.27;33.87;;;;;;;-145.18;100.00;47414.47;5066060;28;20385;-72
2021/12/15 10:27:55;;;;;;;52.43;28.80;;;;;;;-145.18;100.00;47426.19;5055328;28;20403;-71
2021/12/15 10:30:25;;;;;;;61.17;31.70;;;;;;;-145.18;100.00;47420.31;5059050;28;20093;-71
2021/12/15 10:33:21;;;;;;;61.77;31.90;;;;;;;-145.18;100.00;47412.50;5066969;28;20438;-71
2021/12/15 10:36:09;;;;;;;62.47;32.05;;;;;;;-145.18;100.00;47398.81;5060959;28;20040;-71
2021/12/15 10:39:02;;;;;;;58.90;29.70;;;;;;;-145.18;100.00;47426.19;5049797;28;21513;-71
2021/12/15 10:41:28;;;;;;;58.43;30.60;;;;;;;-145.18;100.00;47420.31;5051303;28;20045;-72
2021/12/15 10:43:58;;;;;;;57.50;30.73;;;;;;;-145.18;100.00;47410.56;5046967;28;20409;-71
2021/12/15 10:46:33;;;;;;;56.93;30.90;;;;;;;-145.18;100.00;47410.56;5054139;28;20070;-71
2021/12/15 10:49:07;;;;;;;53.97;29.07;;;;;;;-145.18;100.00;47430.09;5057251;28;20086;-71
2021/12/15 10:51:53;;;;;;;55.43;29.30;;;;;;;-145.18;100.00;47420.31;5045900;28;20071;-71
2021/12/15 10:54:27;;;;;;;54.55;29.88;;;;;;;-145.18;100.00;47424.22;5047327;28;20064;-71
2021/12/15 10:57:03;;;;;;;60.43;29.97;;;;;;;-145.18;100.00;47422.28;5047010;28;20033;-72
2021/12/15 10:59:34;;;;;;;53.73;28.90;;;;;;;-145.18;100.00;47420.31;5056162;28;20036;-72
2021/12/15 11:02:06;;;;;;;51.83;28.50;;;;;;;-145.18;100.00;47422.28;5057866;28;20044;-71
2021/12/15 11:04:47;;;;;;;53.27;28.03;;;;;;;-145.18;100.00;47414.47;5054485;28;20119;-71
2021/12/15 11:07:31;;;;;;;50.80;28.40;;;;;;;-145.18;100.00;47418.38;5058981;28;20102;-72
2021/12/15 11:10:05;;;;;;;47.97;27.33;;;;;;;-145.18;100.00;47426.19;5058789;28;20059;-71
2021/12/15 11:12:36;;;;;;;47.93;25.40;;;;;;;-145.18;100.00;47418.38;5064438;28;20076;-72
2021/12/15 11:15:07;;;;;;;45.47;27.37;;;;;;;-145.18;100.00;47418.38;5057460;28;20040;-72
2021/12/15 11:17:44;;;;;;;46.30;26.30;;;;;;;-145.18;100.00;47418.38;5056267;28;20576;-72
2021/12/15 11:20:19;;;;;;;45.77;25.43;;;;;;;-145.18;100.00;47418.38;5046343;28;20037;-72
2021/12/15 11:23:08;;;;;;;46.00;26.38;;;;;;;-145.18;100.00;47410.56;5045093;28;20037;-71
2021/12/15 11:25:56;;;;;;;45.83;25.67;;;;;;;-145.18;100.00;47426.19;5060964;28;20050;-71
2021/12/15 11:28:24;;;;;;;51.70;27.27;;;;;;;-145.18;100.00;47400.78;5084750;28;20062;-72
2021/12/15 11:30:55;;;;;;;45.90;25.03;;;;;;;-145.18;100.00;47422.28;5083743;28;20044;-72
2021/12/15 11:33:23;;;;;;;46.73;26.57;;;;;;;-145.18;100.00;47406.63;5086916;28;20531;-72
2021/12/15 11:36:11;;;;;;;48.30;25.90;;;;;;;-145.18;100.00;47412.50;5086149;28;20039;-71
2021/12/15 11:38:40;;;;;;;46.17;25.70;;;;;;;-145.18;100.00;47428.13;5078380;28;20036;-71
2021/12/15 11:41:24;;;;;;;50.97;28.17;;;;;;;-145.18;100.00;47443.75;5083488;28;20043;-71
2021/12/15 11:43:56;;;;;;;50.53;29.30;;;;;;;-145.18;100.00;47426.19;5079601;28;20124;-71
2021/12/15 11:46:33;;;;;;;49.30;27.97;;;;;;;-145.18;100.00;47410.56;5078375;28;20432;-71
2021/12/15 11:49:09;;;;;;;50.27;27.43;;;;;;;-145.18;100.00;47434.00;5070075;28;20097;-71
2021/12/15 11:51:48;;;;;;;46.47;25.92;;;;;;;-145.18;100.00;47430.09;5066232;28;20044;-71
2021/12/15 11:54:25;;;;;;;62.70;24.53;;;;;;;-145.18;100.00;47430.09;5066607;28;20056;-71
2021/12/15 11:57:05;;;;;;;51.73;27.87;;;;;;;-145.18;100.00;47437.91;5066355;28;20166;-72
2021/12/15 11:59:38;;;;;;;49.07;26.80;;;;;;;-145.18;100.00;47414.47;5065673;28;20584;-71
2021/12/15 12:02:06;;;;;;;46.27;26.63;;;;;;;-145.18;100.00;47430.09;5066002;28;20101;-71
2021/12/15 12:04:34;;;;;;;43.07;24.97;;;;;;;-145.18;100.00;47426.19;5063136;28;20044;-72
2021/12/15 12:07:09;;;;;;;42.50;23.10;;;;;;;-145.18;100.00;47424.22;5064435;28;20048;-71
2021/12/15 12:09:37;;;;;;;41.80;27.50;;;;;;;-145.18;100.00;47437.91;5065794;28;20404;-71
2021/12/15 12:12:05;;;;;;;46.50;27.90;;;;;;;-145.18;100.00;47408.59;5066270;28;20044;-72
2021/12/15 12:14:43;;;;;;;49.90;28.90;;;;;;;-145.18;100.00;47424.22;5066018;28;20056;-72
2021/12/15 12:17:14;;;;;;;45.63;27.90;;;;;;;-145.18;100.00;47422.28;5049475;28;20059;-71
2021/12/15 12:19:43;;;;;;;47.83;28.63;;;;;;;-145.18;100.00;47432.03;5055674;28;20052;-71
2021/12/15 12:22:11;;;;;;;46.37;27.60;;;;;;;-145.18;100.00;47418.38;5062340;28;20045;-71